EWG7HP EDDL-EDXW
Flight info
| Callsign | EWG7HP |
|---|---|
| Flight time | 0h 41m |
| Altitude | 35000 |
| Route | MEVEL4T/23L MEVEL L179 OSNAD M170 ELSOB Y348 OMWEG DCT BADOS DCT OLDIP |
| Aircraft | A319/M-SDFGIJ1RWXY/HB1 |
Departure
| Time | 2026-05-04 16:13 |
|---|---|
| Airport | Düsseldorf Airport (EDDL) |
Arrival
| Time | 2026-05-04 16:55 |
|---|---|
| Airport | Westerland Sylt Airport (EDXW) |
| Time | Latitude | Longitude | Altitude | Speed | Heading |
|---|---|---|---|---|---|
| 2026-05-04 15:44 | 51.28109 | 6.76541 | 129 ft | 0 kts | 96° |
| 2026-05-04 16:01 | 51.28109 | 6.76528 | 128 ft | 4 kts | 95° |
| 2026-05-04 16:01 | 51.28110 | 6.76486 | 127 ft | 4 kts | 85° |
| 2026-05-04 16:02 | 51.28105 | 6.76445 | 125 ft | 4 kts | 61° |
| 2026-05-04 16:02 | 51.28093 | 6.76422 | 125 ft | 4 kts | 343° |
| 2026-05-04 16:02 | 51.28089 | 6.76424 | 125 ft | 0 kts | 327° |
| 2026-05-04 16:05 | 51.28104 | 6.76418 | 122 ft | 3 kts | 357° |
| 2026-05-04 16:06 | 51.28145 | 6.76424 | 126 ft | 8 kts | 6° |
| 2026-05-04 16:06 | 51.28312 | 6.76485 | 123 ft | 10 kts | 319° |
| 2026-05-04 16:07 | 51.28376 | 6.76537 | 123 ft | 11 kts | 53° |
| 2026-05-04 16:07 | 51.28496 | 6.76789 | 125 ft | 8 kts | 52° |
| 2026-05-04 16:08 | 51.28534 | 6.76868 | 128 ft | 10 kts | 52° |
| 2026-05-04 16:08 | 51.28714 | 6.77246 | 129 ft | 16 kts | 52° |
| 2026-05-04 16:09 | 51.28846 | 6.77524 | 130 ft | 13 kts | 52° |
| 2026-05-04 16:09 | 51.28948 | 6.77738 | 128 ft | 13 kts | 52° |
| 2026-05-04 16:10 | 51.29083 | 6.78022 | 131 ft | 17 kts | 53° |
| 2026-05-04 16:11 | 51.29272 | 6.78419 | 145 ft | 14 kts | 53° |
| 2026-05-04 16:11 | 51.29344 | 6.78551 | 151 ft | 17 kts | 33° |
| 2026-05-04 16:12 | 51.29534 | 6.78499 | 151 ft | 8 kts | 231° |
| 2026-05-04 16:12 | 51.28572 | 6.76494 | 351 ft | 155 kts | 231° |
| 2026-05-04 16:13 | 51.27236 | 6.73659 | 1785 ft | 177 kts | 232° |
| 2026-05-04 16:13 | 51.27288 | 6.69744 | 3249 ft | 207 kts | 313° |
| 2026-05-04 16:14 | 51.30065 | 6.68633 | 4963 ft | 225 kts | 3° |
| 2026-05-04 16:14 | 51.33567 | 6.68999 | 6315 ft | 273 kts | 4° |
| 2026-05-04 16:15 | 51.39483 | 6.69626 | 9679 ft | 291 kts | 2° |
| 2026-05-04 16:16 | 51.43741 | 6.69693 | 11028 ft | 324 kts | 359° |
| 2026-05-04 16:16 | 51.50671 | 6.69609 | 13679 ft | 341 kts | 360° |
| 2026-05-04 16:17 | 51.55484 | 6.69603 | 15211 ft | 352 kts | 0° |
| 2026-05-04 16:18 | 51.62619 | 6.72720 | 17566 ft | 368 kts | 35° |
| 2026-05-04 16:18 | 51.64592 | 6.75399 | 18350 ft | 374 kts | 49° |
| 2026-05-04 16:19 | 51.69293 | 6.85490 | 20648 ft | 378 kts | 55° |
| 2026-05-04 16:19 | 51.72470 | 6.92410 | 21921 ft | 389 kts | 54° |
| 2026-05-04 16:20 | 51.77269 | 7.02874 | 24416 ft | 381 kts | 55° |
| 2026-05-04 16:20 | 51.80546 | 7.10070 | 24767 ft | 415 kts | 55° |
| 2026-05-04 16:21 | 51.85806 | 7.21824 | 25961 ft | 439 kts | 56° |
| 2026-05-04 16:22 | 51.90698 | 7.27640 | 26884 ft | 446 kts | 15° |
| 2026-05-04 16:22 | 51.99917 | 7.30166 | 28319 ft | 457 kts | 15° |
| 2026-05-04 16:23 | 52.09118 | 7.34859 | 29770 ft | 467 kts | 14° |
| 2026-05-04 16:24 | 52.21681 | 7.41110 | 31355 ft | 480 kts | 14° |
| 2026-05-04 16:25 | 52.28091 | 7.44343 | 32188 ft | 483 kts | 14° |
| 2026-05-04 16:26 | 52.40894 | 7.50829 | 34287 ft | 480 kts | 13° |
| 2026-05-04 16:26 | 52.50416 | 7.55679 | 34970 ft | 467 kts | 13° |
| 2026-05-04 16:27 | 52.56525 | 7.58801 | 34964 ft | 455 kts | 13° |
| 2026-05-04 16:28 | 52.65550 | 7.63428 | 34970 ft | 452 kts | 13° |
| 2026-05-04 16:29 | 52.86535 | 7.74229 | 34987 ft | 450 kts | 13° |
| 2026-05-04 16:31 | 53.01390 | 7.81989 | 35007 ft | 448 kts | 12° |
| 2026-05-04 16:32 | 53.19430 | 7.91422 | 35002 ft | 463 kts | 13° |
| 2026-05-04 16:33 | 53.25598 | 7.94682 | 34026 ft | 469 kts | 12° |
| 2026-05-04 16:33 | 53.31899 | 7.98028 | 32101 ft | 476 kts | 13° |
| 2026-05-04 16:34 | 53.38172 | 8.01379 | 30745 ft | 470 kts | 13° |
| 2026-05-04 16:34 | 53.41282 | 8.03036 | 30097 ft | 468 kts | 13° |
| 2026-05-04 16:35 | 53.50474 | 8.07924 | 28157 ft | 455 kts | 12° |
| 2026-05-04 16:35 | 53.59366 | 8.12701 | 26471 ft | 439 kts | 12° |
| 2026-05-04 16:36 | 53.62252 | 8.14260 | 25886 ft | 433 kts | 12° |
| 2026-05-04 16:36 | 53.67908 | 8.17309 | 24756 ft | 421 kts | 12° |
| 2026-05-04 16:37 | 53.73383 | 8.20277 | 23727 ft | 411 kts | 11° |
| 2026-05-04 16:37 | 53.76090 | 8.21741 | 23149 ft | 406 kts | 11° |
| 2026-05-04 16:37 | 53.81440 | 8.24647 | 21792 ft | 397 kts | 12° |
| 2026-05-04 16:38 | 53.86636 | 8.27473 | 20487 ft | 388 kts | 13° |
| 2026-05-04 16:39 | 53.94145 | 8.31563 | 18918 ft | 369 kts | 13° |
| 2026-05-04 16:39 | 53.98960 | 8.34192 | 17985 ft | 359 kts | 13° |
| 2026-05-04 16:40 | 54.03670 | 8.36775 | 17098 ft | 352 kts | 14° |
| 2026-05-04 16:40 | 54.08285 | 8.39321 | 16257 ft | 345 kts | 14° |
| 2026-05-04 16:41 | 54.12814 | 8.41826 | 15427 ft | 339 kts | 14° |
| 2026-05-04 16:41 | 54.19486 | 8.45518 | 14214 ft | 333 kts | 14° |
| 2026-05-04 16:42 | 54.26048 | 8.49154 | 12961 ft | 326 kts | 14° |
| 2026-05-04 16:43 | 54.30302 | 8.51524 | 12160 ft | 321 kts | 14° |
| 2026-05-04 16:43 | 54.34503 | 8.53862 | 11500 ft | 311 kts | 14° |
| 2026-05-04 16:43 | 54.36563 | 8.55005 | 11060 ft | 311 kts | 14° |
| 2026-05-04 16:44 | 54.44585 | 8.59503 | 9272 ft | 299 kts | 14° |
| 2026-05-04 16:45 | 54.48513 | 8.61753 | 8439 ft | 296 kts | 16° |
| 2026-05-04 16:46 | 54.54234 | 8.65475 | 7120 ft | 289 kts | 18° |
| 2026-05-04 16:46 | 54.57937 | 8.67916 | 6094 ft | 280 kts | 18° |
| 2026-05-04 16:47 | 54.61609 | 8.69065 | 5291 ft | 261 kts | 348° |
| 2026-05-04 16:47 | 54.64656 | 8.66825 | 5155 ft | 224 kts | 321° |
| 2026-05-04 16:48 | 54.68462 | 8.62177 | 4715 ft | 219 kts | 321° |
| 2026-05-04 16:48 | 54.69686 | 8.60688 | 4500 ft | 212 kts | 321° |
| 2026-05-04 16:49 | 54.72037 | 8.57805 | 4026 ft | 204 kts | 322° |
| 2026-05-04 16:49 | 54.74331 | 8.54994 | 3518 ft | 200 kts | 322° |
| 2026-05-04 16:50 | 54.76579 | 8.52236 | 3064 ft | 194 kts | 322° |
| 2026-05-04 16:50 | 54.78642 | 8.49703 | 2894 ft | 171 kts | 322° |
| 2026-05-04 16:51 | 54.80515 | 8.47398 | 2500 ft | 162 kts | 322° |
| 2026-05-04 16:51 | 54.81425 | 8.46277 | 2282 ft | 159 kts | 322° |
| 2026-05-04 16:51 | 54.83182 | 8.44112 | 1855 ft | 147 kts | 324° |
| 2026-05-04 16:52 | 54.84713 | 8.42224 | 1502 ft | 123 kts | 323° |
| 2026-05-04 16:52 | 54.85389 | 8.41390 | 1336 ft | 116 kts | 323° |
| 2026-05-04 16:53 | 54.86680 | 8.39802 | 1009 ft | 112 kts | 323° |
| 2026-05-04 16:53 | 54.88558 | 8.37459 | 502 ft | 110 kts | 324° |
| 2026-05-04 16:54 | 54.89188 | 8.36684 | 355 ft | 113 kts | 324° |
| 2026-05-04 16:55 | 54.91381 | 8.33976 | 35 ft | 45 kts | 324° |
| 2026-05-04 16:55 | 54.91679 | 8.33546 | 36 ft | 18 kts | 290° |
| 2026-05-04 16:56 | 54.91763 | 8.33208 | 35 ft | 7 kts | 278° |
| 2026-05-04 16:56 | 54.91590 | 8.33178 | 34 ft | 8 kts | 180° |
| 2026-05-04 16:57 | 54.91514 | 8.33178 | 30 ft | 10 kts | 180° |
| 2026-05-04 16:57 | 54.91429 | 8.33229 | 29 ft | 3 kts | 150° |
| 2026-05-04 16:58 | 54.91385 | 8.33151 | 29 ft | 3 kts | 270° |
| 2026-05-04 16:58 | 54.91385 | 8.33126 | 29 ft | 3 kts | 270° |
| 2026-05-04 16:59 | 54.91385 | 8.33118 | 29 ft | 0 kts | 270° |